Time;durP1;ratioP1;P1;durP2;ratioP2;P2;SDS_P1;SDS_P2;PMS_P1;PMS_P2;Temp;Humidity;BMP_temperature;BMP_pressure;BME280_temperature;BME280_humidity;BME280_pressure;Samples;Min_cycle;Max_cycle;Signal;HPM_P1;HPM_P2
2023/03/25 00:00:14;;;;;;;3.80;1.92;;;;;;;9.21;81.57;97728.03;7392997;19;19947;-71
2023/03/25 00:02:46;;;;;;;1.67;0.90;;;;;;;9.10;81.47;97723.09;7387073;19;20354;-71
2023/03/25 00:05:14;;;;;;;2.08;0.57;;;;;;;8.95;81.35;97717.59;7384401;19;19927;-71
2023/03/25 00:07:42;;;;;;;1.23;0.90;;;;;;;8.91;81.86;97719.75;7392460;19;20280;-72
2023/03/25 00:10:10;;;;;;;1.38;0.77;;;;;;;9.07;81.64;97711.03;7389426;19;19929;-72
2023/03/25 00:12:37;;;;;;;3.83;0.95;;;;;;;8.98;81.56;97715.50;7389343;19;19928;-72
2023/03/25 00:15:06;;;;;;;4.07;0.93;;;;;;;8.99;81.80;97708.38;7385927;19;19940;-72
2023/03/25 00:17:35;;;;;;;0.85;0.82;;;;;;;9.02;81.46;97706.25;7392659;19;19932;-72
2023/03/25 00:20:08;;;;;;;0.80;0.80;;;;;;;9.22;81.34;97698.88;7388487;19;19943;-72
2023/03/25 00:22:39;;;;;;;1.13;0.68;;;;;;;9.24;81.03;97709.25;7388218;19;20286;-72
2023/03/25 00:25:15;;;;;;;2.50;0.63;;;;;;;9.16;81.47;97706.59;7391448;19;20340;-71
2023/03/25 00:27:43;;;;;;;1.67;0.50;;;;;;;9.00;80.96;97697.69;7393110;19;22260;-72
2023/03/25 00:30:10;;;;;;;2.00;0.82;;;;;;;8.90;80.69;97702.28;7390434;19;20019;-71
2023/03/25 00:32:38;;;;;;;1.08;1.08;;;;;;;8.96;80.54;97709.53;7389489;19;20626;-72
2023/03/25 00:35:07;;;;;;;2.00;0.60;;;;;;;9.03;80.24;97709.72;7390728;19;19937;-71
2023/03/25 00:37:34;;;;;;;1.15;1.05;;;;;;;8.96;79.64;97704.25;7387146;19;20009;-71
2023/03/25 00:40:02;;;;;;;2.72;2.50;;;;;;;8.98;79.77;97710.22;7390352;19;20563;-72
2023/03/25 00:42:29;;;;;;;1.27;0.45;;;;;;;9.05;79.40;97710.38;7386705;19;19919;-72
2023/03/25 00:44:55;;;;;;;1.33;0.80;;;;;;;8.98;79.63;97714.66;7389593;19;19939;-73
2023/03/25 00:47:23;;;;;;;0.75;0.50;;;;;;;9.02;79.17;97708.88;7387480;19;19914;-72
2023/03/25 00:49:50;;;;;;;0.88;0.65;;;;;;;9.04;79.35;97708.72;7390259;19;20506;-72
2023/03/25 00:52:18;;;;;;;1.35;1.35;;;;;;;9.08;79.09;97704.75;7382122;19;19926;-73
2023/03/25 00:54:45;;;;;;;0.57;0.50;;;;;;;9.12;79.41;97702.66;7385972;19;19929;-72
2023/03/25 00:57:13;;;;;;;1.30;0.52;;;;;;;9.12;79.39;97703.47;7381934;19;19922;-72
2023/03/25 00:59:40;;;;;;;0.52;0.52;;;;;;;9.21;79.27;97685.81;7388276;19;19938;-73
2023/03/25 01:02:08;;;;;;;1.17;0.80;;;;;;;9.24;79.36;97690.75;7390138;19;19936;-74
2023/03/25 01:04:36;;;;;;;2.50;0.88;;;;;;;9.19;78.68;97686.00;7390339;19;19946;-71
2023/03/25 01:07:06;;;;;;;1.30;1.05;;;;;;;9.22;79.11;97680.38;7391538;19;19922;-71
2023/03/25 01:09:36;;;;;;;1.27;1.08;;;;;;;9.21;78.92;97688.47;7385694;19;20323;-71
2023/03/25 01:12:03;;;;;;;0.82;0.52;;;;;;;9.00;79.04;97681.84;7385027;19;19941;-72
2023/03/25 01:14:30;;;;;;;0.98;0.98;;;;;;;9.02;79.31;97679.84;7388661;19;19910;-72
2023/03/25 01:16:57;;;;;;;2.80;2.05;;;;;;;9.08;79.04;97678.38;7389970;19;20561;-71
2023/03/25 01:19:26;;;;;;;3.70;0.73;;;;;;;8.90;79.04;97669.78;7387993;19;19914;-72
2023/03/25 01:21:53;;;;;;;0.70;0.70;;;;;;;8.87;78.64;97675.38;7389906;19;20370;-73
2023/03/25 01:24:19;;;;;;;2.20;1.35;;;;;;;8.79;78.45;97677.03;7390106;19;19918;-72
2023/03/25 01:26:46;;;;;;;1.30;0.65;;;;;;;8.62;77.86;97685.88;7391092;19;19918;-73
2023/03/25 01:29:15;;;;;;;2.22;0.75;;;;;;;8.70;77.93;97674.53;7391911;19;19950;-72
2023/03/25 01:31:42;;;;;;;1.38;0.95;;;;;;;8.71;77.88;97676.16;7389892;19;20509;-72
2023/03/25 01:34:09;;;;;;;2.58;0.75;;;;;;;8.72;77.92;97678.66;7384476;19;20385;-71
2023/03/25 01:36:38;;;;;;;1.33;0.73;;;;;;;8.78;77.50;97666.63;7383728;19;20311;-71
2023/03/25 01:39:06;;;;;;;0.85;0.70;;;;;;;8.63;77.37;97660.34;7385181;19;19914;-71
2023/03/25 01:41:35;;;;;;;1.20;0.75;;;;;;;8.63;78.08;97658.50;7385609;19;19919;-71
2023/03/25 01:44:20;;;;;;;2.08;1.15;;;;;;;8.69;78.35;97660.53;7385475;19;19914;-72
2023/03/25 01:46:51;;;;;;;2.28;0.82;;;;;;;8.70;78.20;97656.06;7391367;19;19918;-71
2023/03/25 01:49:37;;;;;;;1.50;0.80;;;;;;;8.87;77.89;97654.28;7384413;19;19978;-71
2023/03/25 01:52:08;;;;;;;1.70;0.82;;;;;;;8.79;77.55;97658.56;7390769;19;19933;-71
2023/03/25 01:54:37;;;;;;;1.70;0.68;;;;;;;8.76;77.43;97663.31;7387251;19;20289;-71
2023/03/25 01:57:05;;;;;;;2.97;0.93;;;;;;;8.86;77.42;97658.75;7388942;19;19926;-71
2023/03/25 01:59:32;;;;;;;1.50;0.75;;;;;;;8.89;77.53;97653.13;7386830;19;19926;-71
2023/03/25 02:04:57;;;;;;;2.58;1.23;;;;;;;8.89;77.88;97653.13;7302068;19;20376;-73
2023/03/25 02:07:29;;;;;;;7.28;1.88;;;;;;;8.75;78.05;97646.69;7370273;19;19918;-74
2023/03/25 02:10:03;;;;;;;2.38;0.93;;;;;;;8.73;78.45;97637.28;7383712;19;19925;-74
2023/03/25 02:12:30;;;;;;;2.70;2.50;;;;;;;8.66;78.07;97631.00;7378497;19;19922;-74
2023/03/25 02:14:59;;;;;;;2.97;1.00;;;;;;;8.72;77.63;97635.66;7378886;19;19918;-73
2023/03/25 02:17:42;;;;;;;2.72;1.05;;;;;;;8.67;77.61;97637.94;7378818;19;19922;-72
2023/03/25 02:20:27;;;;;;;2.67;1.02;;;;;;;8.79;77.67;97632.19;7383683;19;19922;-71
2023/03/25 02:23:09;;;;;;;1.50;1.23;;;;;;;8.77;78.08;97634.16;7381242;19;20374;-71
2023/03/25 02:25:58;;;;;;;1.33;1.17;;;;;;;8.84;77.89;97638.78;7385926;19;20330;-71
2023/03/25 02:28:38;;;;;;;2.63;1.20;;;;;;;8.80;77.80;97648.84;7381623;19;19957;-72
2023/03/25 02:31:14;;;;;;;1.73;0.70;;;;;;;8.79;77.91;97645.38;7388122;19;19922;-72
2023/03/25 02:34:00;;;;;;;3.17;0.82;;;;;;;8.89;77.69;97639.13;7380873;19;19923;-72
2023/03/25 02:36:40;;;;;;;0.90;0.88;;;;;;;8.91;77.68;97650.34;7380121;19;19926;-72
2023/03/25 02:39:35;;;;;;;1.65;0.63;;;;;;;9.00;77.77;97652.00;7385976;19;19919;-71
2023/03/25 02:42:19;;;;;;;1.20;0.70;;;;;;;8.94;77.84;97655.28;7385128;19;19990;-72
2023/03/25 02:44:53;;;;;;;0.98;0.98;;;;;;;9.03;77.70;97670.16;7387356;19;19954;-71
2023/03/25 02:47:22;;;;;;;1.35;1.02;;;;;;;8.90;78.42;97672.41;7380604;19;19919;-71
2023/03/25 02:49:59;;;;;;;1.45;1.30;;;;;;;8.79;79.35;97707.84;7383965;19;19939;-71
2023/03/25 02:52:29;;;;;;;1.92;0.73;;;;;;;8.15;81.01;97746.91;7379432;19;20172;-70
2023/03/25 02:55:01;;;;;;;3.53;0.75;;;;;;;7.14;84.73;97755.19;7384354;19;20330;-73
2023/03/25 02:57:31;;;;;;;2.42;1.33;;;;;;;6.85;86.19;97736.97;7382720;19;20343;-71
2023/03/25 02:59:58;;;;;;;1.25;1.25;;;;;;;6.81;86.44;97743.47;7383139;19;19919;-71
2023/03/25 03:02:31;;;;;;;1.38;0.88;;;;;;;6.79;86.39;97724.38;7373830;19;19914;-70
2023/03/25 03:04:59;;;;;;;1.00;0.82;;;;;;;6.79;86.79;97708.59;7361126;19;20346;-70
2023/03/25 03:07:29;;;;;;;1.05;0.55;;;;;;;6.91;85.41;97701.34;7325528;19;20948;-71
2023/03/25 03:10:12;;;;;;;1.25;1.15;;;;;;;6.96;85.13;97689.41;7374166;19;20302;-70
2023/03/25 03:12:41;;;;;;;1.20;0.68;;;;;;;6.90;84.85;97695.28;7378165;19;19943;-70
2023/03/25 03:15:19;;;;;;;2.05;0.77;;;;;;;6.94;84.78;97687.91;7376342;19;20678;-71
2023/03/25 03:18:36;;;;;;;0.45;0.45;;;;;;;6.95;84.54;97687.75;7387349;19;19915;-70
2023/03/25 03:21:39;;;;;;;1.50;1.40;;;;;;;7.21;84.54;97665.94;7378911;19;20347;-70
2023/03/25 03:24:22;;;;;;;1.00;1.00;;;;;;;7.38;84.43;97656.38;7379507;19;19925;-70
2023/03/25 03:26:54;;;;;;;0.85;0.85;;;;;;;7.46;84.23;97670.44;7385544;19;20442;-71
2023/03/25 03:29:47;;;;;;;0.90;0.90;;;;;;;7.48;84.51;97665.84;7382645;19;19915;-70
2023/03/25 03:32:27;;;;;;;2.15;2.05;;;;;;;7.55;84.72;97667.84;7383482;19;20641;-71
2023/03/25 03:34:58;;;;;;;1.20;1.20;;;;;;;7.57;84.50;97681.69;7384530;19;20350;-70
2023/03/25 03:37:31;;;;;;;0.45;0.45;;;;;;;7.61;84.46;97688.28;7385529;19;19923;-70
2023/03/25 03:39:58;;;;;;;1.05;1.05;;;;;;;7.61;84.31;97678.59;7385232;19;19922;-71
2023/03/25 03:42:31;;;;;;;0.90;0.70;;;;;;;7.51;84.37;97682.31;7381719;19;19926;-70
2023/03/25 03:45:04;;;;;;;2.05;1.52;;;;;;;7.51;84.60;97690.22;7379831;19;19918;-71
2023/03/25 03:47:35;;;;;;;0.70;0.60;;;;;;;7.45;84.17;97683.72;7380666;19;20332;-70
2023/03/25 03:50:12;;;;;;;1.05;1.05;;;;;;;7.49;84.60;97706.13;7382841;19;19925;-70
2023/03/25 03:52:42;;;;;;;1.33;0.82;;;;;;;7.43;84.61;97710.22;7383050;19;20632;-71
2023/03/25 03:55:17;;;;;;;1.27;0.95;;;;;;;7.37;84.29;97718.72;7386721;19;19923;-71
2023/03/25 03:57:49;;;;;;;0.93;0.80;;;;;;;7.46;84.67;97723.06;7380998;19;19922;-70
2023/03/25 04:00:32;;;;;;;1.40;0.82;;;;;;;7.45;84.41;97720.56;7378424;19;19955;-70
2023/03/25 04:03:14;;;;;;;4.50;0.90;;;;;;;7.42;83.91;97724.31;7379410;19;19914;-71
2023/03/25 04:05:44;;;;;;;1.35;1.25;;;;;;;7.44;84.15;97716.28;7379195;19;19946;-70
2023/03/25 04:08:25;;;;;;;1.05;0.70;;;;;;;7.44;84.41;97722.38;7380600;19;19918;-70
2023/03/25 04:10:57;;;;;;;1.13;1.02;;;;;;;7.26;84.41;97724.19;7386059;19;19983;-70
2023/03/25 04:13:28;;;;;;;0.98;0.98;;;;;;;7.30;84.34;97719.47;7380198;19;19918;-71
2023/03/25 04:15:58;;;;;;;1.63;1.52;;;;;;;7.35;83.94;97715.41;7381995;19;19918;-70
2023/03/25 04:18:27;;;;;;;1.27;1.13;;;;;;;7.42;83.46;97715.63;7381797;19;20028;-70
2023/03/25 04:20:54;;;;;;;2.10;1.92;;;;;;;7.30;83.81;97722.09;7380474;19;19922;-70
2023/03/25 04:23:21;;;;;;;0.82;0.70;;;;;;;7.31;84.13;97718.50;7375836;19;19918;-70
2023/03/25 04:25:54;;;;;;;0.82;0.82;;;;;;;7.29;84.07;97721.25;7382069;19;19922;-70
2023/03/25 04:28:22;;;;;;;0.82;0.82;;;;;;;7.40;83.57;97722.84;7378705;19;20340;-70
2023/03/25 04:30:54;;;;;;;1.58;1.58;;;;;;;7.42;83.66;97721.69;7380516;19;20372;-71
2023/03/25 04:33:24;;;;;;;1.85;0.77;;;;;;;7.47;83.30;97719.44;7381066;19;19914;-70
2023/03/25 04:35:51;;;;;;;1.30;0.77;;;;;;;7.37;82.97;97716.09;7381539;19;19922;-71
2023/03/25 04:38:19;;;;;;;0.88;0.60;;;;;;;7.35;82.87;97725.13;7379757;19;19925;-70
2023/03/25 04:40:46;;;;;;;1.05;0.75;;;;;;;7.42;82.68;97724.31;7381054;19;20351;-71
2023/03/25 04:43:14;;;;;;;2.22;0.77;;;;;;;7.33;82.46;97716.53;7378692;19;19922;-71
2023/03/25 04:45:47;;;;;;;1.55;1.08;;;;;;;7.31;82.20;97727.19;7378729;19;19914;-71
2023/03/25 04:48:22;;;;;;;0.73;0.73;;;;;;;7.28;81.90;97716.97;7376683;19;19921;-71
2023/03/25 04:50:54;;;;;;;1.20;1.20;;;;;;;7.32;82.19;97725.41;7382309;19;20276;-71
2023/03/25 04:53:21;;;;;;;1.10;0.80;;;;;;;7.30;82.07;97728.19;7380318;19;19931;-71
2023/03/25 04:55:54;;;;;;;0.85;0.70;;;;;;;7.34;82.09;97726.91;7387345;19;19923;-70
2023/03/25 04:58:22;;;;;;;1.35;1.25;;;;;;;7.32;82.04;97731.50;7383681;19;20280;-70
2023/03/25 05:00:50;;;;;;;1.23;0.50;;;;;;;7.34;81.93;97740.06;7382284;19;20862;-70
2023/03/25 05:03:23;;;;;;;1.63;1.08;;;;;;;7.29;81.78;97737.03;7378384;19;19919;-70
2023/03/25 05:06:00;;;;;;;0.73;0.50;;;;;;;7.36;82.00;97732.03;7381867;19;19918;-70
2023/03/25 05:08:32;;;;;;;1.52;1.48;;;;;;;7.32;81.82;97735.91;7385422;19;19922;-70
2023/03/25 05:11:00;;;;;;;1.10;1.00;;;;;;;7.25;81.56;97740.97;7385964;19;19923;-70
2023/03/25 05:13:30;;;;;;;0.70;0.50;;;;;;;7.28;82.17;97743.28;7382670;19;19922;-71
2023/03/25 05:16:01;;;;;;;1.50;1.40;;;;;;;7.35;82.13;97754.88;7381065;19;20288;-71
2023/03/25 05:18:35;;;;;;;1.50;1.17;;;;;;;7.44;82.35;97753.97;7382992;19;19929;-70
2023/03/25 05:21:04;;;;;;;0.60;0.60;;;;;;;7.44;82.40;97742.63;7382035;19;20267;-70
2023/03/25 05:23:30;;;;;;;2.20;0.98;;;;;;;7.52;82.33;97747.13;7377565;19;19934;-70
2023/03/25 05:25:58;;;;;;;0.52;0.52;;;;;;;7.51;82.53;97748.13;7384698;19;19917;-70
2023/03/25 05:28:25;;;;;;;1.35;1.25;;;;;;;7.55;82.50;97746.81;7382394;19;20407;-72
2023/03/25 05:30:53;;;;;;;0.82;0.82;;;;;;;7.42;82.46;97755.09;7385933;19;19975;-70
2023/03/25 05:33:21;;;;;;;2.83;2.40;;;;;;;7.64;82.56;97757.28;7377143;19;19918;-71
2023/03/25 05:35:48;;;;;;;4.22;0.88;;;;;;;7.72;82.26;97763.59;7378387;19;20324;-71
2023/03/25 05:38:17;;;;;;;0.88;0.88;;;;;;;7.81;82.26;97757.38;7381848;19;19922;-71
2023/03/25 05:40:45;;;;;;;2.58;0.90;;;;;;;7.79;81.98;97754.91;7383021;19;19919;-71
2023/03/25 05:43:16;;;;;;;3.03;0.73;;;;;;;7.77;82.20;97751.63;7378533;19;19949;-71
2023/03/25 05:45:44;;;;;;;3.10;0.93;;;;;;;7.77;82.09;97746.34;7383497;19;19911;-71
2023/03/25 05:48:11;;;;;;;1.45;0.75;;;;;;;7.81;81.79;97747.69;7380459;19;19915;-71
2023/03/25 05:50:41;;;;;;;1.70;0.65;;;;;;;7.81;81.59;97752.94;7378343;19;19923;-71
2023/03/25 05:53:14;;;;;;;1.55;0.98;;;;;;;7.85;81.98;97751.66;7373869;19;19922;-71
2023/03/25 05:55:41;;;;;;;1.85;1.00;;;;;;;7.80;81.96;97748.66;7377657;19;19929;-71
2023/03/25 05:58:08;;;;;;;1.63;0.80;;;;;;;7.81;81.66;97747.69;7377623;19;19919;-71
2023/03/25 06:00:35;;;;;;;1.92;0.88;;;;;;;7.80;81.49;97748.66;7377837;19;19951;-72
2023/03/25 06:03:05;;;;;;;1.77;1.05;;;;;;;7.81;80.92;97738.97;7379024;19;20289;-71
2023/03/25 06:05:32;;;;;;;2.22;1.75;;;;;;;7.80;80.93;97753.94;7378837;19;19990;-71
2023/03/25 06:08:00;;;;;;;4.93;1.35;;;;;;;7.88;81.05;97747.91;7382333;19;19986;-71
2023/03/25 06:10:28;;;;;;;1.77;1.15;;;;;;;7.97;80.72;97751.41;7382056;19;19927;-71
2023/03/25 06:12:55;;;;;;;3.15;0.70;;;;;;;7.98;80.14;97755.69;7377943;19;19914;-71
2023/03/25 06:15:27;;;;;;;3.15;2.60;;;;;;;7.94;80.08;97762.25;7382171;19;21265;-72
2023/03/25 06:17:55;;;;;;;1.27;0.93;;;;;;;7.96;80.01;97762.94;7379021;19;19918;-72
2023/03/25 06:20:22;;;;;;;2.65;1.42;;;;;;;8.02;79.87;97767.56;7375172;19;20358;-71
2023/03/25 06:22:49;;;;;;;1.88;0.90;;;;;;;8.08;80.04;97773.06;7375933;19;20281;-71
2023/03/25 06:25:19;;;;;;;3.08;1.13;;;;;;;8.16;80.25;97777.53;7379254;19;19994;-72
2023/03/25 06:27:48;;;;;;;1.15;0.95;;;;;;;8.22;80.08;97784.84;7383433;19;19933;-72
2023/03/25 06:30:20;;;;;;;3.85;0.90;;;;;;;8.21;79.80;97785.81;7378649;19;20265;-71
2023/03/25 06:32:51;;;;;;;2.35;0.63;;;;;;;8.32;79.72;97785.56;7379450;19;19935;-71
2023/03/25 06:35:18;;;;;;;3.90;1.17;;;;;;;8.34;80.28;97780.94;7377649;19;20006;-72
2023/03/25 06:37:47;;;;;;;2.05;1.33;;;;;;;8.45;79.83;97781.69;7374941;19;20343;-71
2023/03/25 06:40:23;;;;;;;3.63;0.88;;;;;;;8.37;79.70;97787.72;7368493;19;19933;-71
2023/03/25 06:42:51;;;;;;;3.78;2.25;;;;;;;8.40;79.39;97786.59;7383449;19;19974;-71
2023/03/25 06:45:36;;;;;;;1.70;0.90;;;;;;;8.43;79.26;97781.88;7385850;19;19922;-71
2023/03/25 06:48:08;;;;;;;1.38;1.15;;;;;;;8.32;79.38;97782.94;7383959;19;20411;-71
2023/03/25 06:50:35;;;;;;;2.95;1.05;;;;;;;8.37;79.51;97779.81;7385347;19;19935;-71
2023/03/25 06:53:02;;;;;;;2.92;1.08;;;;;;;8.42;79.46;97789.91;7388201;19;19951;-72
2023/03/25 06:55:29;;;;;;;3.33;1.48;;;;;;;8.53;79.88;97787.84;7387009;19;19922;-71
2023/03/25 06:58:33;;;;;;;3.40;1.20;;;;;;;8.57;80.21;97778.63;7392067;19;19915;-71
2023/03/25 07:01:05;;;;;;;2.35;1.10;;;;;;;8.60;79.31;97780.13;7387963;19;20268;-71
2023/03/25 07:03:35;;;;;;;4.22;1.17;;;;;;;8.54;79.00;97780.75;7385935;19;19947;-71
2023/03/25 07:06:06;;;;;;;4.00;1.17;;;;;;;8.52;78.79;97774.81;7389685;19;20028;-71
2023/03/25 07:08:33;;;;;;;2.47;1.10;;;;;;;8.50;79.18;97784.69;7389499;19;19918;-71
2023/03/25 07:11:05;;;;;;;1.48;0.88;;;;;;;8.54;79.70;97770.22;7387944;19;19922;-71
2023/03/25 07:13:32;;;;;;;4.40;1.25;;;;;;;8.61;79.02;97775.69;7379285;19;20987;-71
2023/03/25 07:15:59;;;;;;;1.30;0.88;;;;;;;8.75;79.00;97767.19;7383476;19;20435;-71
2023/03/25 07:18:26;;;;;;;2.25;1.20;;;;;;;8.86;78.02;97782.72;7381759;19;19915;-70
2023/03/25 07:20:53;;;;;;;3.22;0.95;;;;;;;9.07;78.10;97777.00;7384357;19;19923;-70
2023/03/25 07:23:19;;;;;;;1.13;0.82;;;;;;;9.21;77.86;97773.72;7379304;19;20307;-70
2023/03/25 07:25:46;;;;;;;2.03;0.73;;;;;;;9.10;75.80;97779.31;7382416;19;19925;-71
2023/03/25 07:28:13;;;;;;;2.47;1.30;;;;;;;9.31;76.13;97772.78;7364425;19;19918;-71
2023/03/25 07:30:44;;;;;;;2.53;1.33;;;;;;;9.07;75.19;97786.75;7380158;19;19955;-70
2023/03/25 07:33:11;;;;;;;2.70;0.65;;;;;;;9.11;76.03;97781.00;7381273;19;19922;-71
2023/03/25 07:35:38;;;;;;;2.80;1.00;;;;;;;8.93;75.33;97782.91;7384069;19;19961;-71
2023/03/25 07:38:05;;;;;;;2.20;0.90;;;;;;;8.82;75.00;97770.00;7385809;19;19929;-70
2023/03/25 07:40:31;;;;;;;1.55;1.25;;;;;;;8.71;73.77;97776.38;7387823;19;19918;-70
2023/03/25 07:42:58;;;;;;;1.48;1.00;;;;;;;8.83;74.69;97783.03;7383751;19;20033;-71
2023/03/25 07:45:42;;;;;;;1.15;0.98;;;;;;;8.99;74.24;97784.91;7382178;19;19940;-71
2023/03/25 07:48:13;;;;;;;3.70;1.05;;;;;;;9.20;75.05;97782.66;7385551;19;20312;-70
2023/03/25 07:50:41;;;;;;;1.33;0.85;;;;;;;9.36;74.88;97787.13;7388503;19;20274;-70
2023/03/25 07:53:08;;;;;;;2.28;1.08;;;;;;;9.36;74.13;97789.78;7384504;19;19923;-71
2023/03/25 07:55:36;;;;;;;2.30;0.80;;;;;;;9.50;73.98;97785.66;7389326;19;19919;-71
2023/03/25 07:58:02;;;;;;;2.00;1.20;;;;;;;9.61;75.02;97777.44;7382779;19;19936;-71
2023/03/25 08:00:29;;;;;;;0.95;0.73;;;;;;;9.79;74.31;97779.09;7382922;19;19919;-71
2023/03/25 08:02:56;;;;;;;3.15;0.85;;;;;;;10.09;74.55;97778.41;7384938;19;19914;-71
2023/03/25 08:05:23;;;;;;;1.17;0.85;;;;;;;10.29;73.54;97778.06;7382943;19;20511;-71
2023/03/25 08:07:51;;;;;;;1.58;1.02;;;;;;;10.64;73.86;97784.78;7384989;19;19970;-70
2023/03/25 08:10:18;;;;;;;0.82;0.55;;;;;;;10.79;73.04;97763.69;7384239;19;19929;-70
2023/03/25 08:12:45;;;;;;;3.13;0.73;;;;;;;10.57;71.65;97775.03;7385210;19;19931;-71
2023/03/25 08:15:12;;;;;;;4.03;1.15;;;;;;;10.76;71.74;97769.34;7382882;19;20466;-71
2023/03/25 08:17:39;;;;;;;2.72;0.68;;;;;;;10.54;70.95;97762.97;7382730;19;19957;-71
2023/03/25 08:20:07;;;;;;;0.63;0.52;;;;;;;10.74;72.04;97766.03;7386445;19;19927;-71
2023/03/25 08:22:35;;;;;;;2.33;1.45;;;;;;;10.73;70.98;97762.56;7385672;19;19918;-71
2023/03/25 08:25:02;;;;;;;1.13;1.00;;;;;;;10.89;72.21;97772.25;7384438;19;19922;-70
2023/03/25 08:27:29;;;;;;;0.47;0.47;;;;;;;10.97;70.30;97764.28;7384165;19;20322;-71
2023/03/25 08:29:58;;;;;;;1.45;1.05;;;;;;;11.14;71.54;97770.31;7381009;19;19956;-70
2023/03/25 08:32:26;;;;;;;1.55;0.50;;;;;;;11.16;70.49;97770.97;7379313;19;19915;-71
2023/03/25 08:34:53;;;;;;;4.13;0.52;;;;;;;10.94;70.31;97766.44;7387321;19;19911;-71
2023/03/25 08:37:22;;;;;;;0.88;0.80;;;;;;;10.82;70.00;97766.03;7387456;19;19918;-71
2023/03/25 08:39:49;;;;;;;2.95;1.00;;;;;;;10.76;71.81;97764.88;7390084;19;19941;-71
2023/03/25 08:42:16;;;;;;;2.22;0.68;;;;;;;10.89;71.88;97752.91;7387485;19;20000;-71
2023/03/25 08:44:43;;;;;;;0.77;0.60;;;;;;;10.90;71.90;97747.47;7387411;19;19968;-71
2023/03/25 08:47:10;;;;;;;0.68;0.60;;;;;;;10.80;72.08;97754.78;7386797;19;19956;-70
2023/03/25 08:49:37;;;;;;;0.63;0.63;;;;;;;10.62;70.39;97755.00;7387245;19;19918;-70
2023/03/25 08:52:07;;;;;;;2.25;0.80;;;;;;;10.44;70.32;97755.22;7389326;19;19922;-70
2023/03/25 08:54:34;;;;;;;0.90;0.63;;;;;;;10.41;71.37;97744.19;7389162;19;19943;-71
2023/03/25 08:57:01;;;;;;;2.03;0.60;;;;;;;10.13;73.68;97757.75;7388148;19;19926;-70
2023/03/25 08:59:28;;;;;;;0.80;0.45;;;;;;;9.87;74.34;97776.44;7381979;19;19922;-70
2023/03/25 09:01:55;;;;;;;0.75;0.68;;;;;;;9.87;74.50;97763.22;7381138;19;19945;-70
2023/03/25 09:04:25;;;;;;;1.52;0.95;;;;;;;9.68;74.70;97759.94;7380525;19;19922;-70
2023/03/25 09:06:51;;;;;;;0.57;0.55;;;;;;;9.62;74.44;97771.16;7382045;19;19934;-70
2023/03/25 09:09:41;;;;;;;1.02;0.47;;;;;;;9.58;74.50;97776.94;7380348;19;20523;-70
2023/03/25 09:12:08;;;;;;;0.70;0.32;;;;;;;9.54;75.02;97775.63;7381144;19;19922;-71
2023/03/25 09:14:35;;;;;;;0.80;0.80;;;;;;;9.30;75.03;97782.50;7381682;19;19918;-70
2023/03/25 09:17:04;;;;;;;0.80;0.80;;;;;;;9.09;77.09;97784.78;7385548;19;20296;-70
2023/03/25 09:19:33;;;;;;;1.95;1.83;;;;;;;9.30;78.65;97771.97;7384197;19;19925;-71
2023/03/25 09:22:00;;;;;;;0.47;0.47;;;;;;;9.53;80.81;97777.44;7385600;19;20291;-71
2023/03/25 09:24:27;;;;;;;0.47;0.40;;;;;;;9.87;79.53;97776.44;7382746;19;19926;-71
2023/03/25 09:26:54;;;;;;;0.50;0.50;;;;;;;9.89;78.69;97777.09;7383413;19;19953;-71
2023/03/25 09:29:21;;;;;;;2.97;1.05;;;;;;;9.91;77.60;97777.78;7380712;19;19934;-71
2023/03/25 09:31:47;;;;;;;0.77;0.77;;;;;;;9.75;77.81;97777.78;7385777;19;19914;-72
2023/03/25 09:34:14;;;;;;;0.52;0.47;;;;;;;9.93;77.62;97781.06;7384313;19;19914;-71
2023/03/25 09:36:41;;;;;;;0.85;0.85;;;;;;;9.92;77.41;97776.75;7387021;19;19923;-71
2023/03/25 09:39:08;;;;;;;1.38;1.27;;;;;;;9.87;76.94;97777.28;7388355;19;20336;-72
2023/03/25 09:42:06;;;;;;;0.60;0.60;;;;;;;9.83;76.66;97783.88;7384447;19;19919;-71
2023/03/25 09:44:58;;;;;;;0.63;0.63;;;;;;;10.17;77.28;97774.13;7382310;19;20255;-72
2023/03/25 09:47:35;;;;;;;0.90;0.90;;;;;;;10.40;77.05;97769.81;7382104;19;19925;-72
2023/03/25 09:50:06;;;;;;;1.13;0.68;;;;;;;10.92;77.54;97758.66;7385995;19;20310;-71
2023/03/25 09:53:00;;;;;;;0.73;0.73;;;;;;;11.37;76.77;97767.72;7377558;19;19919;-71
2023/03/25 09:55:29;;;;;;;1.27;0.60;;;;;;;11.31;74.28;97763.09;7383154;19;19934;-72
2023/03/25 09:58:34;;;;;;;1.73;0.60;;;;;;;11.15;73.62;97761.38;7381127;19;20348;-71
2023/03/25 10:01:58;;;;;;;0.57;0.55;;;;;;;10.77;73.55;97758.59;7379412;19;22211;-71
2023/03/25 10:04:27;;;;;;;;;;;;;;;10.60;73.92;97758.81;7379430;19;20085;-71
2023/03/25 10:07:33;;;;;;;0.57;0.57;;;;;;;10.49;76.20;97770.59;7375559;19;20374;-72
2023/03/25 10:10:28;;;;;;;0.95;0.95;;;;;;;10.45;76.56;97761.34;7382178;19;19950;-72
2023/03/25 10:13:23;;;;;;;0.70;0.70;;;;;;;10.79;77.78;97753.09;7375985;19;19944;-72
2023/03/25 10:15:58;;;;;;;0.57;0.40;;;;;;;11.38;77.54;97747.34;7384147;19;19914;-71
2023/03/25 10:18:46;;;;;;;0.65;0.57;;;;;;;11.56;74.58;97752.34;7382394;19;19939;-71
2023/03/25 10:21:16;;;;;;;1.05;0.70;;;;;;;11.81;73.58;97742.38;7384451;19;20356;-71
2023/03/25 10:24:14;;;;;;;0.88;0.82;;;;;;;12.03;72.80;97744.19;7381857;19;19956;-71
2023/03/25 10:26:46;;;;;;;1.90;1.80;;;;;;;12.04;70.56;97737.88;7387252;19;20584;-71
2023/03/25 10:29:20;;;;;;;1.83;1.73;;;;;;;12.30;72.34;97745.41;7385031;19;19981;-72
2023/03/25 10:31:51;;;;;;;0.90;0.88;;;;;;;12.46;70.59;97747.06;7384305;19;20301;-72
2023/03/25 10:34:23;;;;;;;1.17;0.68;;;;;;;12.37;69.53;97744.66;7387241;19;19990;-71
2023/03/25 10:36:56;;;;;;;1.45;0.57;;;;;;;12.21;69.10;97727.91;7383134;19;20271;-70
2023/03/25 10:39:32;;;;;;;0.75;0.73;;;;;;;12.36;69.27;97725.28;7385969;19;19918;-71
2023/03/25 10:42:20;;;;;;;0.73;0.40;;;;;;;11.99;67.63;97728.81;7387634;19;19935;-71
2023/03/25 10:44:47;;;;;;;5.07;1.73;;;;;;;11.42;67.98;97722.94;7386039;19;20161;-72
2023/03/25 10:47:19;;;;;;;1.52;0.80;;;;;;;11.34;68.95;97732.78;7381371;19;19923;-71
2023/03/25 10:49:47;;;;;;;1.30;0.73;;;;;;;11.17;69.46;97734.72;7390007;19;19939;-71
2023/03/25 10:52:15;;;;;;;2.55;0.85;;;;;;;11.20;69.83;97734.38;7391274;19;20440;-71
2023/03/25 10:54:49;;;;;;;1.65;0.45;;;;;;;11.06;70.69;97721.88;7391403;19;19915;-72
2023/03/25 10:57:21;;;;;;;1.17;0.47;;;;;;;10.94;71.80;97724.09;7389629;19;19921;-72
2023/03/25 10:59:51;;;;;;;2.45;0.52;;;;;;;11.09;70.88;97724.19;7389539;19;19918;-71
2023/03/25 11:02:21;;;;;;;0.93;0.60;;;;;;;11.03;71.31;97720.41;7388882;19;19914;-72
2023/03/25 11:04:50;;;;;;;0.52;0.40;;;;;;;11.46;71.45;97726.09;7389858;19;20326;-71
2023/03/25 11:07:35;;;;;;;1.25;0.82;;;;;;;11.67;68.09;97722.78;7384608;19;20621;-71
2023/03/25 11:10:16;;;;;;;0.50;0.45;;;;;;;11.73;67.73;97730.00;7384891;19;19919;-71
2023/03/25 11:12:47;;;;;;;0.93;0.45;;;;;;;11.70;67.22;97735.66;7385333;19;19939;-72
2023/03/25 11:15:24;;;;;;;0.63;0.43;;;;;;;12.29;66.71;97738.44;7387996;19;19919;-72
2023/03/25 11:18:10;;;;;;;0.52;0.52;;;;;;;12.63;63.42;97731.75;7386508;19;19918;-71
2023/03/25 11:20:40;;;;;;;0.85;0.50;;;;;;;13.80;62.70;97734.28;7386647;19;20498;-71
2023/03/25 11:23:24;;;;;;;0.70;0.68;;;;;;;14.58;61.52;97726.22;7385386;19;19956;-71
2023/03/25 11:25:53;;;;;;;1.13;0.32;;;;;;;13.96;59.18;97711.91;7381362;19;20281;-72
2023/03/25 11:28:34;;;;;;;1.88;0.80;;;;;;;12.53;59.06;97736.50;7380235;19;20272;-71
2023/03/25 11:31:11;;;;;;;0.35;0.25;;;;;;;12.04;61.60;97727.28;7387224;19;19921;-72
2023/03/25 11:33:40;;;;;;;0.65;0.55;;;;;;;12.50;61.40;97710.34;7378248;19;19974;-72
2023/03/25 11:36:40;;;;;;;0.93;0.55;;;;;;;12.95;60.68;97711.97;7387508;19;19914;-70
2023/03/25 11:39:17;;;;;;;0.75;0.32;;;;;;;13.67;59.95;97707.56;7386474;19;20402;-71
2023/03/25 11:41:44;;;;;;;2.13;1.33;;;;;;;14.25;59.08;97702.06;7382810;19;19926;-71
2023/03/25 11:44:40;;;;;;;0.70;0.45;;;;;;;14.34;54.77;97708.03;7381056;19;20277;-71
2023/03/25 11:47:08;;;;;;;1.33;0.55;;;;;;;14.86;55.78;97702.19;7385803;19;20271;-72
2023/03/25 11:49:37;;;;;;;2.53;0.85;;;;;;;14.78;53.26;97701.53;7383219;19;19914;-71
2023/03/25 11:52:19;;;;;;;1.20;1.08;;;;;;;14.95;52.94;97712.66;7381865;19;20314;-71
2023/03/25 11:54:46;;;;;;;3.47;0.60;;;;;;;14.54;53.38;97700.22;7383477;19;20295;-71
2023/03/25 11:57:17;;;;;;;0.93;0.90;;;;;;;14.16;54.72;97711.19;7381921;19;19919;-69
2023/03/25 11:59:46;;;;;;;1.75;0.93;;;;;;;14.32;53.77;97699.44;7383852;19;20357;-70
2023/03/25 12:02:16;;;;;;;2.42;1.20;;;;;;;13.58;55.85;97698.91;7385239;19;19944;-70
2023/03/25 12:05:03;;;;;;;0.85;0.75;;;;;;;13.27;57.18;97698.41;7378853;19;19953;-70